createdAt,value
2022-11-22T00:02:19.175Z,100650.28
2022-11-22T00:05:41.147Z,100659.69
2022-11-22T00:09:02.887Z,100658.03
2022-11-22T00:12:25.010Z,100658.00
2022-11-22T00:15:58.031Z,100661.44
2022-11-22T00:19:19.805Z,100657.09
2022-11-22T00:22:44.753Z,100631.44
2022-11-22T00:26:12.140Z,100654.56
2022-11-22T00:29:34.218Z,100652.88
2022-11-22T00:32:57.415Z,100655.50
2022-11-22T00:36:19.378Z,100634.91
2022-11-22T00:39:41.550Z,100661.50
2022-11-22T00:43:03.856Z,100646.97
2022-11-22T00:46:25.681Z,100658.09
2022-11-22T00:49:48.603Z,100646.19
2022-11-22T00:53:10.652Z,100650.47
2022-11-22T00:56:33.321Z,100645.38
2022-11-22T00:59:55.090Z,100649.66
2022-11-22T01:03:16.703Z,100643.66
2022-11-22T01:06:40.226Z,100637.66
2022-11-22T01:10:02.401Z,100636.84
2022-11-22T01:13:24.529Z,100629.19
2022-11-22T01:16:46.588Z,100629.19
2022-11-22T01:20:10.277Z,100635.06
2022-11-22T01:23:34.059Z,100618.78
2022-11-22T01:26:56.907Z,100624.84
2022-11-22T01:30:19.055Z,100621.41
2022-11-22T01:33:43.652Z,100609.50
2022-11-22T01:37:05.732Z,100607.81
2022-11-22T01:40:29.316Z,100603.47
2022-11-22T01:43:51.505Z,100605.19
2022-11-22T01:47:15.500Z,100594.97
2022-11-22T01:50:41.161Z,100606.09
2022-11-22T01:54:07.109Z,100601.84
2022-11-22T01:57:32.594Z,100592.44
2022-11-22T02:00:59.838Z,100586.44
2022-11-22T02:04:24.379Z,100591.63
2022-11-22T02:07:53.166Z,100586.50
2022-11-22T02:11:15.688Z,100595.03
2022-11-22T02:14:41.688Z,100591.63
2022-11-22T02:18:03.733Z,100590.81
2022-11-22T02:21:25.933Z,100586.50
2022-11-22T02:24:55.136Z,100592.47
2022-11-22T02:28:18.699Z,100587.38
2022-11-22T02:31:43.677Z,100599.31
2022-11-22T02:35:20.376Z,100599.28
2022-11-22T02:38:42.185Z,100601.00
2022-11-22T02:42:06.461Z,100606.06
2022-11-22T02:45:29.854Z,100600.88
2022-11-22T02:48:52.016Z,100600.03
2022-11-22T02:52:18.066Z,100605.97
2022-11-22T02:55:40.076Z,100606.81
2022-11-22T02:59:02.019Z,100602.53
2022-11-22T03:02:25.508Z,100600.78
2022-11-22T03:05:49.768Z,100590.53
2022-11-22T03:09:12.003Z,100609.34
2022-11-22T03:12:36.047Z,100599.00
2022-11-22T03:15:57.822Z,100606.63
2022-11-22T03:19:21.417Z,100603.16
2022-11-22T03:22:43.522Z,100595.38
2022-11-22T03:26:09.012Z,100592.00
2022-11-22T03:29:30.936Z,100597.06
2022-11-22T03:32:52.793Z,100592.78
2022-11-22T03:36:15.666Z,100580.78
2022-11-22T03:39:37.357Z,100574.00
2022-11-22T03:43:01.729Z,100579.84
2022-11-22T03:46:23.471Z,100578.19
2022-11-22T03:49:45.139Z,100574.75
2022-11-22T03:53:08.798Z,100585.81
2022-11-22T03:56:30.809Z,100580.72
2022-11-22T03:59:52.911Z,100579.84
2022-11-22T04:03:15.037Z,100576.41
2022-11-22T04:06:37.090Z,100579.72
2022-11-22T04:10:00.690Z,100576.31
2022-11-22T04:13:45.143Z,100571.19
2022-11-22T04:17:06.007Z,100559.22
2022-11-22T04:20:47.002Z,100569.44
2022-11-22T04:24:28.202Z,100560.84
2022-11-22T04:27:51.628Z,100565.97
2022-11-22T04:31:31.328Z,100563.47
2022-11-22T04:34:53.214Z,100555.78
2022-11-22T04:38:15.839Z,100555.75
2022-11-22T04:41:37.701Z,100552.38
2022-11-22T04:44:59.986Z,100543.75
2022-11-22T04:48:21.594Z,100547.13
2022-11-22T04:52:03.550Z,100548.06
2022-11-22T04:55:25.482Z,100533.50
2022-11-22T04:58:47.156Z,100521.38
2022-11-22T05:02:10.630Z,100548.81
2022-11-22T05:05:35.630Z,100544.47
2022-11-22T05:08:57.706Z,100546.16
2022-11-22T05:12:22.774Z,100528.91
2022-11-22T05:15:44.249Z,100550.38
2022-11-22T05:19:08.050Z,100558.84
2022-11-22T05:22:43.487Z,100540.06
2022-11-22T05:26:06.154Z,100544.22
2022-11-22T05:29:28.500Z,100558.75
2022-11-22T05:32:50.221Z,100563.88
2022-11-22T05:36:14.270Z,100563.81
2022-11-22T05:39:36.364Z,100559.56
2022-11-22T05:42:59.351Z,100565.44
2022-11-22T05:46:25.084Z,100563.63
2022-11-22T05:49:47.162Z,100551.69
2022-11-22T05:53:10.594Z,100561.97
2022-11-22T05:56:32.178Z,100562.78
2022-11-22T05:59:57.170Z,100559.38
2022-11-22T06:03:18.887Z,100563.69
2022-11-22T06:06:41.066Z,100558.50
2022-11-22T06:10:04.710Z,100568.72
2022-11-22T06:13:26.863Z,100561.09
2022-11-22T06:16:48.413Z,100550.06
2022-11-22T06:20:11.208Z,100548.38
2022-11-22T06:23:35.969Z,100547.53
2022-11-22T06:26:59.283Z,100550.94
2022-11-22T06:30:21.072Z,100561.13
2022-11-22T06:33:44.013Z,100557.69
2022-11-22T06:37:05.900Z,100566.28
2022-11-22T06:40:29.918Z,100563.81
2022-11-22T06:43:54.773Z,100559.53
2022-11-22T06:47:17.687Z,100562.13
2022-11-22T06:50:39.459Z,100565.47
2022-11-22T06:54:01.762Z,100568.03
2022-11-22T06:57:23.724Z,100576.63
2022-11-22T07:00:47.469Z,100570.66
2022-11-22T07:04:09.457Z,100569.06
2022-11-22T07:07:31.744Z,100573.31
2022-11-22T07:10:53.650Z,100575.91
2022-11-22T07:14:16.104Z,100561.47
2022-11-22T07:17:39.297Z,100564.03
2022-11-22T07:21:12.170Z,100559.84
2022-11-22T07:24:34.390Z,100559.84
2022-11-22T07:27:56.373Z,100569.34
2022-11-22T07:31:19.241Z,100572.81
2022-11-22T07:34:42.520Z,100572.00
2022-11-22T07:38:04.990Z,100567.75
2022-11-22T07:41:26.814Z,100561.81
2022-11-22T07:44:48.953Z,100571.25
2022-11-22T07:48:14.861Z,100570.44
2022-11-22T07:51:38.238Z,100567.13
2022-11-22T07:55:03.292Z,100562.03
2022-11-22T07:58:27.029Z,100565.50
2022-11-22T08:01:49.020Z,100551.00
2022-11-22T08:05:11.138Z,100557.00
2022-11-22T08:08:35.200Z,100554.44
2022-11-22T08:11:57.340Z,100560.44
2022-11-22T08:15:19.634Z,100569.03
2022-11-22T08:18:42.863Z,100533.91
2022-11-22T08:22:05.060Z,100568.25
2022-11-22T08:25:28.550Z,100573.41
2022-11-22T08:28:50.577Z,100579.38
2022-11-22T08:32:12.890Z,100579.41
2022-11-22T08:35:35.205Z,100577.69
2022-11-22T08:38:57.514Z,100577.75
2022-11-22T08:42:20.559Z,100586.34
2022-11-22T08:45:42.715Z,100582.03
2022-11-22T08:49:06.603Z,100586.34
2022-11-22T08:52:28.844Z,100595.75
2022-11-22T08:55:51.878Z,100594.16
2022-11-22T08:59:15.048Z,100591.63
2022-11-22T09:02:36.961Z,100589.94
2022-11-22T09:09:45.435Z,100583.13
2022-11-22T09:13:07.700Z,100576.28
2022-11-22T09:16:33.037Z,100587.47
2022-11-22T09:19:54.852Z,100574.63
2022-11-22T09:23:16.960Z,100579.00
2022-11-22T09:26:39.210Z,100574.78
2022-11-22T09:30:00.948Z,100573.03
2022-11-22T09:33:24.594Z,100573.91
2022-11-22T09:36:46.494Z,100573.16
2022-11-22T09:40:10.205Z,100576.63
2022-11-22T09:43:44.967Z,100569.75
2022-11-22T09:47:18.725Z,100570.69
2022-11-22T09:50:50.185Z,100572.41
2022-11-22T09:54:16.766Z,100573.19
2022-11-22T09:57:43.978Z,100577.47
2022-11-22T10:01:13.224Z,100574.97
2022-11-22T10:04:42.308Z,100570.72
2022-11-22T10:08:14.438Z,100575.78
2022-11-22T10:11:41.730Z,100580.91
2022-11-22T10:15:09.810Z,100569.84
2022-11-22T10:18:39.930Z,100566.47
2022-11-22T10:22:01.947Z,100561.38
2022-11-22T10:25:35.490Z,100553.72
2022-11-22T10:29:11.009Z,100551.22
2022-11-22T10:32:40.087Z,100557.13
2022-11-22T10:36:16.804Z,100555.38
2022-11-22T10:39:59.960Z,100550.22
2022-11-22T10:43:36.678Z,100548.56
2022-11-22T10:47:06.655Z,100548.53
2022-11-22T10:50:36.811Z,100545.09
2022-11-22T10:54:13.711Z,100549.41
2022-11-22T10:57:42.986Z,100551.09
2022-11-22T11:01:12.528Z,100553.69
2022-11-22T11:47:32.487Z,100558.38
2022-11-22T11:50:54.505Z,100555.75
2022-11-22T11:54:20.074Z,100545.47
2022-11-22T11:57:45.916Z,100545.44
2022-11-22T12:01:15.340Z,100542.88
2022-11-22T12:04:49.911Z,100537.75
2022-11-22T12:08:30.566Z,100544.50
2022-11-22T12:11:54.096Z,100539.41
2022-11-22T12:15:21.346Z,100541.13
2022-11-22T12:18:51.305Z,100547.13
2022-11-22T12:22:42.628Z,100550.53
2022-11-22T12:26:03.596Z,100546.25
2022-11-22T12:29:25.674Z,100559.94
2022-11-22T12:32:55.910Z,100550.53
2022-11-22T12:36:24.299Z,100542.84
2022-11-22T12:39:51.262Z,100535.94
2022-11-22T12:43:18.631Z,100553.06
2022-11-22T12:46:45.839Z,100552.16
2022-11-22T12:55:02.314Z,100547.94
2022-11-22T12:58:34.584Z,100542.78
2022-11-22T13:02:06.403Z,100556.44
2022-11-22T13:05:31.671Z,100551.25
2022-11-22T13:09:04.089Z,100546.13
2022-11-22T13:12:33.129Z,100552.09
2022-11-22T13:15:57.706Z,100557.22
2022-11-22T13:19:25.139Z,100550.38
2022-11-22T13:22:58.011Z,100562.31
2022-11-22T13:26:30.788Z,100558.91
2022-11-22T13:29:57.316Z,100564.00
2022-11-22T13:33:30.315Z,100556.31
2022-11-22T13:36:55.635Z,100556.28
2022-11-22T13:40:30.093Z,100546.03
2022-11-22T13:43:55.545Z,100550.28
2022-11-22T13:47:44.252Z,100557.06
2022-11-22T13:51:09.803Z,100558.78
2022-11-22T13:54:57.299Z,100554.50
2022-11-22T13:58:55.726Z,100554.47
2022-11-22T14:02:24.315Z,100554.44
2022-11-22T14:05:51.367Z,100545.88
2022-11-22T14:09:31.541Z,100546.69
2022-11-22T14:13:12.488Z,100533.88
2022-11-22T14:16:51.692Z,100549.22
2022-11-22T14:20:24.298Z,100544.91
2022-11-22T14:24:00.048Z,100547.50
2022-11-22T14:27:36.002Z,100537.22
2022-11-22T14:30:59.104Z,100544.03
2022-11-22T14:34:23.835Z,100553.41
2022-11-22T14:37:48.274Z,100557.69
2022-11-22T14:41:43.866Z,100558.47
2022-11-22T14:45:21.532Z,100545.69
2022-11-22T14:48:51.339Z,100549.09
2022-11-22T14:52:21.836Z,100536.28
2022-11-22T14:55:44.236Z,100543.88
2022-11-22T14:59:24.002Z,100532.78
2022-11-22T15:03:03.636Z,100522.53
2022-11-22T15:09:16.474Z,100519.94
2022-11-22T15:10:45.329Z,100515.59
2022-11-22T15:14:56.854Z,100526.69
2022-11-22T16:00:01.067Z,100556.47
2022-11-22T16:03:27.061Z,100553.91
2022-11-22T16:06:48.773Z,100543.72
2022-11-22T16:10:20.976Z,100559.91
2022-11-22T16:13:43.181Z,100553.94
2022-11-22T16:17:24.333Z,100544.56
2022-11-22T16:21:01.600Z,100557.34
2022-11-22T16:24:28.578Z,100555.69
2022-11-22T16:27:50.661Z,100549.69
2022-11-22T16:31:22.834Z,100546.25
2022-11-22T16:34:47.049Z,100552.25
2022-11-22T16:38:09.312Z,100565.84
2022-11-22T16:41:31.585Z,100559.88
2022-11-22T16:44:53.776Z,100564.97
2022-11-22T16:48:31.424Z,100566.72
2022-11-22T16:51:55.386Z,100564.16
2022-11-22T16:55:18.094Z,100559.91
2022-11-22T16:58:40.135Z,100553.97
2022-11-22T17:02:02.126Z,100552.28
2022-11-22T17:05:24.319Z,100553.97
2022-11-22T17:08:48.580Z,100563.38
2022-11-22T17:12:15.125Z,100571.03
2022-11-22T17:15:38.125Z,100565.94
2022-11-22T17:19:00.281Z,100553.16
2022-11-22T17:22:22.668Z,100554.81
2022-11-22T17:25:45.818Z,100548.91
2022-11-22T17:29:11.136Z,100547.19
2022-11-22T17:32:40.795Z,100542.97
2022-11-22T17:36:02.991Z,100536.97
2022-11-22T17:39:25.258Z,100543.78
2022-11-22T17:42:49.033Z,100535.25
2022-11-22T17:46:10.813Z,100537.84
2022-11-22T17:49:35.480Z,100543.78
2022-11-22T17:52:57.435Z,100536.13
2022-11-22T17:56:19.902Z,100536.97
2022-11-22T17:59:43.863Z,100537.91
2022-11-22T18:03:08.248Z,100543.84
2022-11-22T18:06:31.568Z,100545.59
2022-11-22T18:09:53.583Z,100543.88
2022-11-22T18:13:22.847Z,100542.19
2022-11-22T18:16:46.061Z,100528.53
2022-11-22T18:20:09.040Z,100537.09
2022-11-22T18:23:34.441Z,100535.41
2022-11-22T18:26:56.388Z,100516.53
2022-11-22T18:30:18.552Z,100542.25
2022-11-22T18:33:41.826Z,100531.16
2022-11-22T18:37:04.896Z,100525.19
2022-11-22T18:40:27.226Z,100535.47
2022-11-22T18:43:49.610Z,100541.47
2022-11-22T18:47:11.392Z,100537.22
2022-11-22T18:50:35.065Z,100526.16
2022-11-22T18:53:56.961Z,100532.16
2022-11-22T18:57:19.011Z,100533.00
2022-11-22T19:00:43.068Z,100537.22
2022-11-22T19:04:04.912Z,100536.41
2022-11-22T19:07:28.382Z,100520.16
2022-11-22T19:10:57.239Z,100533.06
2022-11-22T19:14:19.551Z,100529.66
2022-11-22T19:17:41.126Z,100536.44
2022-11-22T19:21:05.721Z,100529.63
2022-11-22T19:24:29.542Z,100538.16
2022-11-22T19:27:51.718Z,100535.59
2022-11-22T19:31:17.612Z,100548.44
2022-11-22T19:34:39.703Z,100553.53
2022-11-22T19:38:01.181Z,100556.09
2022-11-22T19:41:25.823Z,100559.50
2022-11-22T19:44:50.188Z,100556.09
2022-11-22T19:48:12.101Z,100559.50
2022-11-22T19:51:34.707Z,100566.34
2022-11-22T19:54:57.093Z,100578.28
2022-11-22T19:58:20.535Z,100562.00
2022-11-22T20:01:44.033Z,100562.03
2022-11-22T20:05:06.689Z,100573.16
2022-11-22T20:08:28.945Z,100583.38
2022-11-22T20:11:50.810Z,100583.34
2022-11-22T20:15:14.372Z,100576.53
2022-11-22T20:18:36.767Z,100582.50
2022-11-22T20:21:58.643Z,100586.75
2022-11-22T20:25:20.204Z,100590.19
2022-11-22T20:28:43.822Z,100591.03
2022-11-22T20:32:07.482Z,100597.00
2022-11-22T20:35:29.282Z,100599.56
2022-11-22T20:38:52.059Z,100598.66
2022-11-22T20:42:33.509Z,100611.47
2022-11-22T20:46:02.788Z,100603.81
2022-11-22T20:49:28.319Z,100603.81
2022-11-22T20:52:50.687Z,100611.50
2022-11-22T20:56:14.099Z,100602.13
2022-11-22T20:59:36.032Z,100606.41
2022-11-22T21:02:58.216Z,100601.22
2022-11-22T21:06:23.282Z,100605.50
2022-11-22T21:09:49.904Z,100611.47
2022-11-22T21:13:11.976Z,100604.63
2022-11-22T21:16:33.879Z,100609.75
2022-11-22T21:19:55.950Z,100605.44
2022-11-22T21:23:19.445Z,100607.97
2022-11-22T21:26:41.890Z,100596.00
2022-11-22T21:30:04.034Z,100593.44
2022-11-22T21:33:26.787Z,100601.13
2022-11-22T21:36:48.857Z,100595.97
2022-11-22T21:40:14.043Z,100603.66
2022-11-22T21:43:36.735Z,100590.00
2022-11-22T21:46:58.738Z,100592.56
2022-11-22T21:50:23.696Z,100586.56
2022-11-22T21:53:46.716Z,100584.81
2022-11-22T21:57:10.400Z,100593.28
2022-11-22T22:00:32.658Z,100606.97
2022-11-22T22:03:54.954Z,100611.22
2022-11-22T22:07:36.691Z,100613.81
2022-11-22T22:11:01.161Z,100606.97
2022-11-22T22:14:24.285Z,100611.28
2022-11-22T22:17:46.249Z,100612.97
2022-11-22T22:21:10.629Z,100618.09
2022-11-22T22:24:35.246Z,100612.09
2022-11-22T22:27:58.193Z,100621.53
2022-11-22T22:31:23.143Z,100614.69
2022-11-22T22:34:47.765Z,100614.69
2022-11-22T22:38:09.506Z,100619.84
2022-11-22T22:41:31.429Z,100619.88
2022-11-22T22:44:56.492Z,100619.88
2022-11-22T22:48:20.390Z,100601.06
2022-11-22T22:51:42.191Z,100624.97
2022-11-22T22:55:03.900Z,100629.28
2022-11-22T22:58:26.057Z,100632.69
2022-11-22T23:01:49.140Z,100628.44
2022-11-22T23:05:12.878Z,100628.47
2022-11-22T23:08:34.770Z,100619.91
2022-11-22T23:12:12.135Z,100623.34
2022-11-22T23:15:56.917Z,100625.06
2022-11-22T23:19:16.139Z,100610.50
2022-11-22T23:22:39.201Z,100622.47
2022-11-22T23:26:03.350Z,100637.03
2022-11-22T23:29:25.135Z,100642.16
2022-11-22T23:32:46.745Z,100649.00
2022-11-22T23:36:11.232Z,100635.41
2022-11-22T23:39:36.583Z,100627.72
2022-11-22T23:42:59.124Z,100614.91
2022-11-22T23:46:21.118Z,100614.06
2022-11-22T23:49:43.228Z,100604.59
2022-11-22T23:53:04.799Z,100604.66
2022-11-22T23:56:28.790Z,100596.13
2022-11-22T23:59:50.902Z,100602.97
